sensor_id;sensor_type;location;lat;lon;timestamp;temperature;humidity
80426;DHT22;69766;51.476;5.704;2024-02-28T00:01:51;-0.20;99.90
80426;DHT22;69766;51.476;5.704;2024-02-28T00:04:18;-0.10;99.90
80426;DHT22;69766;51.476;5.704;2024-02-28T00:06:44;-0.20;99.90
80426;DHT22;69766;51.476;5.704;2024-02-28T00:09:12;-0.10;99.90
80426;DHT22;69766;51.476;5.704;2024-02-28T00:11:46;-0.10;99.90
80426;DHT22;69766;51.476;5.704;2024-02-28T00:14:12;-0.10;99.90
80426;DHT22;69766;51.476;5.704;2024-02-28T00:16:42;-0.10;99.90
80426;DHT22;69766;51.476;5.704;2024-02-28T00:19:08;-0.20;99.90
80426;DHT22;69766;51.476;5.704;2024-02-28T00:21:34;-0.20;99.90
80426;DHT22;69766;51.476;5.704;2024-02-28T00:23:59;-0.20;99.90
80426;DHT22;69766;51.476;5.704;2024-02-28T00:26:25;-0.20;99.90
80426;DHT22;69766;51.476;5.704;2024-02-28T00:28:51;-0.20;99.90
80426;DHT22;69766;51.476;5.704;2024-02-28T00:31:17;-0.30;99.90
80426;DHT22;69766;51.476;5.704;2024-02-28T00:33:42;-0.30;99.90
80426;DHT22;69766;51.476;5.704;2024-02-28T00:36:08;-0.40;99.90
80426;DHT22;69766;51.476;5.704;2024-02-28T00:38:33;-0.10;99.90
80426;DHT22;69766;51.476;5.704;2024-02-28T00:41:02;-0.20;99.90
80426;DHT22;69766;51.476;5.704;2024-02-28T00:43:28;-0.20;99.90
80426;DHT22;69766;51.476;5.704;2024-02-28T00:45:53;-0.20;99.90
80426;DHT22;69766;51.476;5.704;2024-02-28T00:48:24;0.00;99.90
80426;DHT22;69766;51.476;5.704;2024-02-28T00:50:53;0.10;99.90
80426;DHT22;69766;51.476;5.704;2024-02-28T00:53:20;0.20;99.90
80426;DHT22;69766;51.476;5.704;2024-02-28T00:55:49;0.20;99.90
80426;DHT22;69766;51.476;5.704;2024-02-28T00:58:17;0.30;99.90
80426;DHT22;69766;51.476;5.704;2024-02-28T01:00:47;0.40;99.90
80426;DHT22;69766;51.476;5.704;2024-02-28T01:03:14;0.50;99.90
80426;DHT22;69766;51.476;5.704;2024-02-28T01:05:43;0.50;99.90
80426;DHT22;69766;51.476;5.704;2024-02-28T01:08:09;0.60;99.90
80426;DHT22;69766;51.476;5.704;2024-02-28T01:10:36;0.70;99.90
80426;DHT22;69766;51.476;5.704;2024-02-28T01:13:06;0.70;99.90
80426;DHT22;69766;51.476;5.704;2024-02-28T01:15:32;0.60;99.90
80426;DHT22;69766;51.476;5.704;2024-02-28T01:17:58;0.60;99.90
80426;DHT22;69766;51.476;5.704;2024-02-28T01:20:27;0.50;99.90
80426;DHT22;69766;51.476;5.704;2024-02-28T01:22:58;0.40;99.90
80426;DHT22;69766;51.476;5.704;2024-02-28T01:25:27;0.40;99.90
80426;DHT22;69766;51.476;5.704;2024-02-28T01:28:03;0.50;99.90
80426;DHT22;69766;51.476;5.704;2024-02-28T01:30:35;0.60;99.90
80426;DHT22;69766;51.476;5.704;2024-02-28T01:33:06;0.40;99.90
80426;DHT22;69766;51.476;5.704;2024-02-28T01:35:38;0.30;99.90
80426;DHT22;69766;51.476;5.704;2024-02-28T01:38:28;0.30;99.90
80426;DHT22;69766;51.476;5.704;2024-02-28T01:40:56;0.10;99.90
80426;DHT22;69766;51.476;5.704;2024-02-28T01:46:27;0.20;99.90
80426;DHT22;69766;51.476;5.704;2024-02-28T01:55:47;-0.10;99.90
80426;DHT22;69766;51.476;5.704;2024-02-28T01:59:01;0.00;99.90
80426;DHT22;69766;51.476;5.704;2024-02-28T02:04:57;0.00;99.90
80426;DHT22;69766;51.476;5.704;2024-02-28T02:07:30;-0.20;99.90
80426;DHT22;69766;51.476;5.704;2024-02-28T02:10:44;-0.30;99.90
80426;DHT22;69766;51.476;5.704;2024-02-28T02:13:47;-0.30;99.90
80426;DHT22;69766;51.476;5.704;2024-02-28T02:16:47;-0.20;99.90
80426;DHT22;69766;51.476;5.704;2024-02-28T02:23:30;-0.20;99.90
80426;DHT22;69766;51.476;5.704;2024-02-28T02:26:45;-0.20;99.90
80426;DHT22;69766;51.476;5.704;2024-02-28T02:29:46;-0.30;99.90
80426;DHT22;69766;51.476;5.704;2024-02-28T02:32:46;-0.30;99.90
80426;DHT22;69766;51.476;5.704;2024-02-28T02:35:59;-0.40;99.90
80426;DHT22;69766;51.476;5.704;2024-02-28T02:42:38;-0.20;99.90
80426;DHT22;69766;51.476;5.704;2024-02-28T02:45:41;-0.10;99.90
80426;DHT22;69766;51.476;5.704;2024-02-28T02:51:46;-0.20;99.90
80426;DHT22;69766;51.476;5.704;2024-02-28T02:55:01;-0.20;99.90
80426;DHT22;69766;51.476;5.704;2024-02-28T02:57:36;-0.20;99.90
80426;DHT22;69766;51.476;5.704;2024-02-28T03:00:36;-0.10;99.90
80426;DHT22;69766;51.476;5.704;2024-02-28T03:03:25;-0.10;99.90
80426;DHT22;69766;51.476;5.704;2024-02-28T03:06:26;-0.10;99.90
80426;DHT22;69766;51.476;5.704;2024-02-28T03:09:09;0.00;99.90
80426;DHT22;69766;51.476;5.704;2024-02-28T03:11:43;0.00;99.90
80426;DHT22;69766;51.476;5.704;2024-02-28T03:14:21;0.10;99.90
80426;DHT22;69766;51.476;5.704;2024-02-28T03:17:14;0.00;99.90
80426;DHT22;69766;51.476;5.704;2024-02-28T03:20:21;0.00;99.90
80426;DHT22;69766;51.476;5.704;2024-02-28T03:22:55;-0.10;99.90
80426;DHT22;69766;51.476;5.704;2024-02-28T03:25:30;-0.10;99.90
80426;DHT22;69766;51.476;5.704;2024-02-28T03:28:10;0.00;99.90
80426;DHT22;69766;51.476;5.704;2024-02-28T03:30:58;0.00;99.90
80426;DHT22;69766;51.476;5.704;2024-02-28T03:33:30;0.00;99.90
80426;DHT22;69766;51.476;5.704;2024-02-28T03:36:13;-0.10;99.90
80426;DHT22;69766;51.476;5.704;2024-02-28T03:38:47;-0.20;99.90
80426;DHT22;69766;51.476;5.704;2024-02-28T03:41:19;-0.30;99.90
80426;DHT22;69766;51.476;5.704;2024-02-28T03:43:57;-0.20;99.90
80426;DHT22;69766;51.476;5.704;2024-02-28T03:46:44;-0.10;99.90
80426;DHT22;69766;51.476;5.704;2024-02-28T03:49:20;-0.20;99.90
80426;DHT22;69766;51.476;5.704;2024-02-28T03:51:55;-0.10;99.90
80426;DHT22;69766;51.476;5.704;2024-02-28T03:54:31;-0.20;99.90
80426;DHT22;69766;51.476;5.704;2024-02-28T03:57:05;-0.10;99.90
80426;DHT22;69766;51.476;5.704;2024-02-28T03:59:40;-0.20;99.90
80426;DHT22;69766;51.476;5.704;2024-02-28T04:02:17;-0.20;99.90
80426;DHT22;69766;51.476;5.704;2024-02-28T04:04:52;-0.10;99.90
80426;DHT22;69766;51.476;5.704;2024-02-28T04:07:30;-0.10;99.90
80426;DHT22;69766;51.476;5.704;2024-02-28T07:21:08;1.30;99.90
80426;DHT22;69766;51.476;5.704;2024-02-28T07:23:50;1.30;99.90
80426;DHT22;69766;51.476;5.704;2024-02-28T07:29:45;1.40;99.90
80426;DHT22;69766;51.476;5.704;2024-02-28T07:32:11;1.40;99.90
80426;DHT22;69766;51.476;5.704;2024-02-28T07:34:55;1.60;99.90
80426;DHT22;69766;51.476;5.704;2024-02-28T07:37:24;1.50;99.90
80426;DHT22;69766;51.476;5.704;2024-02-28T07:40:16;1.50;99.90
80426;DHT22;69766;51.476;5.704;2024-02-28T07:42:42;1.60;99.90
80426;DHT22;69766;51.476;5.704;2024-02-28T07:45:29;1.50;99.90
80426;DHT22;69766;51.476;5.704;2024-02-28T07:47:54;1.70;99.90
80426;DHT22;69766;51.476;5.704;2024-02-28T07:50:29;1.90;99.90
80426;DHT22;69766;51.476;5.704;2024-02-28T07:52:59;1.80;99.90
80426;DHT22;69766;51.476;5.704;2024-02-28T07:58:42;1.90;99.90
80426;DHT22;69766;51.476;5.704;2024-02-28T08:08:46;2.30;99.90
80426;DHT22;69766;51.476;5.704;2024-02-28T08:47:28;3.40;99.90
80426;DHT22;69766;51.476;5.704;2024-02-28T09:13:13;5.60;99.90
80426;DHT22;69766;51.476;5.704;2024-02-28T09:15:57;5.70;99.90
80426;DHT22;69766;51.476;5.704;2024-02-28T09:18:23;5.70;99.90
80426;DHT22;69766;51.476;5.704;2024-02-28T09:20:51;5.80;99.90
80426;DHT22;69766;51.476;5.704;2024-02-28T09:30:15;5.50;99.90
80426;DHT22;69766;51.476;5.704;2024-02-28T09:32:44;6.10;99.90
80426;DHT22;69766;51.476;5.704;2024-02-28T09:35:09;6.60;99.90
80426;DHT22;69766;51.476;5.704;2024-02-28T09:37:37;7.20;99.90
80426;DHT22;69766;51.476;5.704;2024-02-28T09:40:09;7.50;99.90
80426;DHT22;69766;51.476;5.704;2024-02-28T09:42:35;7.70;99.90
80426;DHT22;69766;51.476;5.704;2024-02-28T09:45:02;7.30;99.90
80426;DHT22;69766;51.476;5.704;2024-02-28T09:47:31;7.20;99.90
80426;DHT22;69766;51.476;5.704;2024-02-28T09:49:58;7.50;99.90
80426;DHT22;69766;51.476;5.704;2024-02-28T09:55:34;7.50;99.90
80426;DHT22;69766;51.476;5.704;2024-02-28T09:58:00;7.50;99.90
80426;DHT22;69766;51.476;5.704;2024-02-28T10:00:29;7.20;99.90
80426;DHT22;69766;51.476;5.704;2024-02-28T10:02:56;7.50;99.90
80426;DHT22;69766;51.476;5.704;2024-02-28T10:05:41;7.40;99.90
80426;DHT22;69766;51.476;5.704;2024-02-28T10:08:08;7.40;99.90
80426;DHT22;69766;51.476;5.704;2024-02-28T10:10:54;7.70;99.90
80426;DHT22;69766;51.476;5.704;2024-02-28T10:13:26;7.80;99.90
80426;DHT22;69766;51.476;5.704;2024-02-28T10:16:16;7.80;99.90
80426;DHT22;69766;51.476;5.704;2024-02-28T10:18:52;7.90;99.90
80426;DHT22;69766;51.476;5.704;2024-02-28T10:21:30;7.90;99.90
80426;DHT22;69766;51.476;5.704;2024-02-28T10:24:14;8.10;99.90
80426;DHT22;69766;51.476;5.704;2024-02-28T10:27:16;8.30;99.90
80426;DHT22;69766;51.476;5.704;2024-02-28T10:30:14;8.90;99.90
80426;DHT22;69766;51.476;5.704;2024-02-28T10:32:52;8.70;99.90
80426;DHT22;69766;51.476;5.704;2024-02-28T10:35:27;8.80;99.90
80426;DHT22;69766;51.476;5.704;2024-02-28T10:37:56;9.10;99.90
80426;DHT22;69766;51.476;5.704;2024-02-28T10:40:22;9.20;99.90
80426;DHT22;69766;51.476;5.704;2024-02-28T10:42:51;9.10;99.90
80426;DHT22;69766;51.476;5.704;2024-02-28T10:45:24;9.40;99.90
80426;DHT22;69766;51.476;5.704;2024-02-28T10:47:51;9.40;99.90
80426;DHT22;69766;51.476;5.704;2024-02-28T10:50:17;9.40;99.90
80426;DHT22;69766;51.476;5.704;2024-02-28T10:52:53;9.50;99.90
80426;DHT22;69766;51.476;5.704;2024-02-28T10:55:42;9.10;99.90
80426;DHT22;69766;51.476;5.704;2024-02-28T10:58:24;9.00;99.90
80426;DHT22;69766;51.476;5.704;2024-02-28T11:01:15;9.00;99.90
80426;DHT22;69766;51.476;5.704;2024-02-28T11:03:57;9.00;99.90
80426;DHT22;69766;51.476;5.704;2024-02-28T11:06:32;8.90;99.90
80426;DHT22;69766;51.476;5.704;2024-02-28T11:09:03;8.70;99.90
80426;DHT22;69766;51.476;5.704;2024-02-28T11:11:34;8.70;99.90
80426;DHT22;69766;51.476;5.704;2024-02-28T11:14:18;8.80;99.90
80426;DHT22;69766;51.476;5.704;2024-02-28T11:17:10;8.80;99.90
80426;DHT22;69766;51.476;5.704;2024-02-28T11:19:50;8.60;99.90
80426;DHT22;69766;51.476;5.704;2024-02-28T11:22:18;8.80;99.90
80426;DHT22;69766;51.476;5.704;2024-02-28T11:24:53;8.90;99.90
80426;DHT22;69766;51.476;5.704;2024-02-28T11:27:25;8.90;99.90
80426;DHT22;69766;51.476;5.704;2024-02-28T11:29:53;9.00;99.90
80426;DHT22;69766;51.476;5.704;2024-02-28T11:41:32;9.70;99.90
80426;DHT22;69766;51.476;5.704;2024-02-28T11:44:20;9.50;99.90
80426;DHT22;69766;51.476;5.704;2024-02-28T11:46:55;9.70;99.90
80426;DHT22;69766;51.476;5.704;2024-02-28T11:49:21;9.50;99.90
80426;DHT22;69766;51.476;5.704;2024-02-28T11:51:53;9.30;99.90
80426;DHT22;69766;51.476;5.704;2024-02-28T11:54:42;9.10;99.90
80426;DHT22;69766;51.476;5.704;2024-02-28T11:57:14;9.40;99.90
80426;DHT22;69766;51.476;5.704;2024-02-28T11:59:44;9.50;99.90
80426;DHT22;69766;51.476;5.704;2024-02-28T12:02:18;9.40;99.90
80426;DHT22;69766;51.476;5.704;2024-02-28T12:05:10;9.30;99.90
80426;DHT22;69766;51.476;5.704;2024-02-28T12:07:44;9.20;99.90
80426;DHT22;69766;51.476;5.704;2024-02-28T12:10:30;9.30;99.90
80426;DHT22;69766;51.476;5.704;2024-02-28T12:13:06;9.20;99.90
80426;DHT22;69766;51.476;5.704;2024-02-28T12:15:41;8.80;99.90
80426;DHT22;69766;51.476;5.704;2024-02-28T12:18:19;8.90;99.90
80426;DHT22;69766;51.476;5.704;2024-02-28T12:21:02;9.00;99.90
80426;DHT22;69766;51.476;5.704;2024-02-28T12:23:35;8.90;99.90
80426;DHT22;69766;51.476;5.704;2024-02-28T12:26:07;9.00;99.90
80426;DHT22;69766;51.476;5.704;2024-02-28T12:28:32;9.00;99.90
80426;DHT22;69766;51.476;5.704;2024-02-28T12:31:01;9.00;99.90
80426;DHT22;69766;51.476;5.704;2024-02-28T12:33:27;9.30;99.90
80426;DHT22;69766;51.476;5.704;2024-02-28T12:35:56;9.20;99.90
80426;DHT22;69766;51.476;5.704;2024-02-28T12:38:28;9.20;99.90
80426;DHT22;69766;51.476;5.704;2024-02-28T12:41:07;9.40;99.90
80426;DHT22;69766;51.476;5.704;2024-02-28T12:43:49;9.50;99.90
80426;DHT22;69766;51.476;5.704;2024-02-28T12:46:18;9.60;99.90
80426;DHT22;69766;51.476;5.704;2024-02-28T12:48:52;9.50;99.90
80426;DHT22;69766;51.476;5.704;2024-02-28T12:51:39;9.70;99.90
80426;DHT22;69766;51.476;5.704;2024-02-28T12:54:06;9.70;99.90
80426;DHT22;69766;51.476;5.704;2024-02-28T12:56:36;9.50;99.90
80426;DHT22;69766;51.476;5.704;2024-02-28T12:59:03;9.40;99.90
80426;DHT22;69766;51.476;5.704;2024-02-28T13:01:32;9.50;99.90
80426;DHT22;69766;51.476;5.704;2024-02-28T13:04:00;9.70;99.90
80426;DHT22;69766;51.476;5.704;2024-02-28T13:06:26;9.90;99.90
80426;DHT22;69766;51.476;5.704;2024-02-28T13:08:52;9.70;99.90
80426;DHT22;69766;51.476;5.704;2024-02-28T13:11:24;9.60;99.90
80426;DHT22;69766;51.476;5.704;2024-02-28T13:13:53;9.40;99.90
80426;DHT22;69766;51.476;5.704;2024-02-28T13:16:19;9.10;99.90
80426;DHT22;69766;51.476;5.704;2024-02-28T13:18:47;8.80;99.90
80426;DHT22;69766;51.476;5.704;2024-02-28T13:21:13;9.00;99.90
80426;DHT22;69766;51.476;5.704;2024-02-28T13:23:44;9.00;99.90
80426;DHT22;69766;51.476;5.704;2024-02-28T13:26:13;8.90;99.90
80426;DHT22;69766;51.476;5.704;2024-02-28T13:28:47;9.00;99.90
80426;DHT22;69766;51.476;5.704;2024-02-28T13:31:13;9.10;99.90
80426;DHT22;69766;51.476;5.704;2024-02-28T13:33:51;9.10;99.90
80426;DHT22;69766;51.476;5.704;2024-02-28T13:36:23;9.30;99.90
80426;DHT22;69766;51.476;5.704;2024-02-28T13:39:13;9.50;99.90
80426;DHT22;69766;51.476;5.704;2024-02-28T13:41:42;9.70;99.90
80426;DHT22;69766;51.476;5.704;2024-02-28T13:44:11;9.60;99.90
80426;DHT22;69766;51.476;5.704;2024-02-28T13:46:39;9.50;99.90
80426;DHT22;69766;51.476;5.704;2024-02-28T13:49:07;9.40;99.90
80426;DHT22;69766;51.476;5.704;2024-02-28T13:51:36;9.50;99.90
80426;DHT22;69766;51.476;5.704;2024-02-28T13:54:13;9.80;99.90
80426;DHT22;69766;51.476;5.704;2024-02-28T13:56:45;9.80;99.90
80426;DHT22;69766;51.476;5.704;2024-02-28T13:59:13;9.80;99.90
80426;DHT22;69766;51.476;5.704;2024-02-28T14:01:54;9.60;99.90
80426;DHT22;69766;51.476;5.704;2024-02-28T14:04:46;9.50;99.90
80426;DHT22;69766;51.476;5.704;2024-02-28T14:07:18;9.40;99.90
80426;DHT22;69766;51.476;5.704;2024-02-28T14:09:45;9.40;99.90
80426;DHT22;69766;51.476;5.704;2024-02-28T14:12:17;9.50;99.90
80426;DHT22;69766;51.476;5.704;2024-02-28T14:14:46;9.40;99.90
80426;DHT22;69766;51.476;5.704;2024-02-28T14:17:15;9.20;99.90
80426;DHT22;69766;51.476;5.704;2024-02-28T14:19:41;9.10;99.90
80426;DHT22;69766;51.476;5.704;2024-02-28T14:22:07;9.10;99.90
80426;DHT22;69766;51.476;5.704;2024-02-28T14:24:35;9.00;99.90
80426;DHT22;69766;51.476;5.704;2024-02-28T14:27:13;9.00;99.90
80426;DHT22;69766;51.476;5.704;2024-02-28T14:29:49;9.00;99.90
80426;DHT22;69766;51.476;5.704;2024-02-28T14:32:15;9.20;99.90
80426;DHT22;69766;51.476;5.704;2024-02-28T14:34:47;9.50;99.90
80426;DHT22;69766;51.476;5.704;2024-02-28T14:37:17;9.60;99.90
80426;DHT22;69766;51.476;5.704;2024-02-28T14:39:46;9.80;99.90
80426;DHT22;69766;51.476;5.704;2024-02-28T14:42:12;9.70;99.90
80426;DHT22;69766;51.476;5.704;2024-02-28T14:45:07;9.70;99.90
80426;DHT22;69766;51.476;5.704;2024-02-28T14:47:39;9.60;99.90
80426;DHT22;69766;51.476;5.704;2024-02-28T14:50:19;9.60;99.90
80426;DHT22;69766;51.476;5.704;2024-02-28T14:52:57;9.60;99.90
80426;DHT22;69766;51.476;5.704;2024-02-28T14:55:26;9.60;99.90
80426;DHT22;69766;51.476;5.704;2024-02-28T14:57:52;9.70;99.90
80426;DHT22;69766;51.476;5.704;2024-02-28T15:00:29;9.80;99.90
80426;DHT22;69766;51.476;5.704;2024-02-28T15:03:08;9.80;99.90
80426;DHT22;69766;51.476;5.704;2024-02-28T15:05:39;9.70;99.90
80426;DHT22;69766;51.476;5.704;2024-02-28T15:08:12;9.60;99.90
80426;DHT22;69766;51.476;5.704;2024-02-28T15:10:41;9.50;99.90
80426;DHT22;69766;51.476;5.704;2024-02-28T15:13:13;9.50;99.90
80426;DHT22;69766;51.476;5.704;2024-02-28T15:15:41;9.90;99.90
80426;DHT22;69766;51.476;5.704;2024-02-28T15:18:07;9.90;99.90
80426;DHT22;69766;51.476;5.704;2024-02-28T15:21:18;9.90;99.90
80426;DHT22;69766;51.476;5.704;2024-02-28T15:23:35;9.90;99.90
80426;DHT22;69766;51.476;5.704;2024-02-28T15:26:07;9.90;99.90
80426;DHT22;69766;51.476;5.704;2024-02-28T15:29:09;10.00;99.90
80426;DHT22;69766;51.476;5.704;2024-02-28T15:31:49;9.90;99.90
80426;DHT22;69766;51.476;5.704;2024-02-28T15:34:17;9.90;99.90
80426;DHT22;69766;51.476;5.704;2024-02-28T15:37:14;9.80;99.90
80426;DHT22;69766;51.476;5.704;2024-02-28T15:39:45;9.70;99.90
80426;DHT22;69766;51.476;5.704;2024-02-28T15:42:46;9.80;99.90
80426;DHT22;69766;51.476;5.704;2024-02-28T15:45:20;9.80;99.90
80426;DHT22;69766;51.476;5.704;2024-02-28T15:47:52;9.90;99.90
80426;DHT22;69766;51.476;5.704;2024-02-28T15:50:20;9.70;99.90
80426;DHT22;69766;51.476;5.704;2024-02-28T15:52:54;9.60;99.90
80426;DHT22;69766;51.476;5.704;2024-02-28T15:55:23;9.50;99.90
80426;DHT22;69766;51.476;5.704;2024-02-28T15:57:52;9.50;99.90
80426;DHT22;69766;51.476;5.704;2024-02-28T16:00:45;9.40;99.90
80426;DHT22;69766;51.476;5.704;2024-02-28T16:03:20;9.40;99.90
80426;DHT22;69766;51.476;5.704;2024-02-28T16:05:47;9.40;99.90
80426;DHT22;69766;51.476;5.704;2024-02-28T16:15:09;9.20;99.90
80426;DHT22;69766;51.476;5.704;2024-02-28T16:18:05;9.10;99.90
80426;DHT22;69766;51.476;5.704;2024-02-28T16:20:40;9.20;99.90
80426;DHT22;69766;51.476;5.704;2024-02-28T16:23:11;9.20;99.90
80426;DHT22;69766;51.476;5.704;2024-02-28T16:25:43;9.10;99.90
80426;DHT22;69766;51.476;5.704;2024-02-28T16:31:47;9.00;99.90
80426;DHT22;69766;51.476;5.704;2024-02-28T16:34:16;9.00;99.90
80426;DHT22;69766;51.476;5.704;2024-02-28T16:36:42;9.00;99.90
80426;DHT22;69766;51.476;5.704;2024-02-28T16:39:08;8.90;99.90
80426;DHT22;69766;51.476;5.704;2024-02-28T16:41:34;9.00;99.90
80426;DHT22;69766;51.476;5.704;2024-02-28T16:44:09;9.00;99.90
80426;DHT22;69766;51.476;5.704;2024-02-28T16:46:57;9.00;99.90
80426;DHT22;69766;51.476;5.704;2024-02-28T16:49:47;8.90;99.90
80426;DHT22;69766;51.476;5.704;2024-02-28T16:52:16;8.80;99.90
80426;DHT22;69766;51.476;5.704;2024-02-28T16:54:51;8.70;99.90
80426;DHT22;69766;51.476;5.704;2024-02-28T17:01:13;8.50;99.90
80426;DHT22;69766;51.476;5.704;2024-02-28T17:03:50;8.40;99.90
80426;DHT22;69766;51.476;5.704;2024-02-28T17:09:46;8.20;99.90
80426;DHT22;69766;51.476;5.704;2024-02-28T17:12:39;8.10;99.90
80426;DHT22;69766;51.476;5.704;2024-02-28T17:15:22;8.10;99.90
80426;DHT22;69766;51.476;5.704;2024-02-28T17:18:18;8.20;99.90
80426;DHT22;69766;51.476;5.704;2024-02-28T17:24:16;8.00;99.90
80426;DHT22;69766;51.476;5.704;2024-02-28T17:27:17;7.90;99.90
80426;DHT22;69766;51.476;5.704;2024-02-28T17:29:47;8.00;99.90
80426;DHT22;69766;51.476;5.704;2024-02-28T17:32:26;8.00;99.90
80426;DHT22;69766;51.476;5.704;2024-02-28T17:35:08;8.00;99.90
80426;DHT22;69766;51.476;5.704;2024-02-28T17:38:21;8.00;99.90
80426;DHT22;69766;51.476;5.704;2024-02-28T17:41:17;8.00;99.90
80426;DHT22;69766;51.476;5.704;2024-02-28T17:47:13;8.00;99.90
80426;DHT22;69766;51.476;5.704;2024-02-28T17:49:59;8.00;99.90
80426;DHT22;69766;51.476;5.704;2024-02-28T17:53:03;8.10;99.90
80426;DHT22;69766;51.476;5.704;2024-02-28T17:55:53;8.20;99.90
80426;DHT22;69766;51.476;5.704;2024-02-28T17:58:51;8.10;99.90
80426;DHT22;69766;51.476;5.704;2024-02-28T18:01:47;8.20;99.90
80426;DHT22;69766;51.476;5.704;2024-02-28T18:04:44;8.10;99.90
80426;DHT22;69766;51.476;5.704;2024-02-28T18:07:18;8.10;99.90
80426;DHT22;69766;51.476;5.704;2024-02-28T18:10:19;8.10;99.90
80426;DHT22;69766;51.476;5.704;2024-02-28T18:13:20;8.10;99.90
80426;DHT22;69766;51.476;5.704;2024-02-28T18:19:28;8.00;99.90
80426;DHT22;69766;51.476;5.704;2024-02-28T18:22:04;8.10;99.90
80426;DHT22;69766;51.476;5.704;2024-02-28T18:27:36;8.00;99.90
80426;DHT22;69766;51.476;5.704;2024-02-28T18:30:22;7.80;99.90
80426;DHT22;69766;51.476;5.704;2024-02-28T18:32:56;7.90;99.90
80426;DHT22;69766;51.476;5.704;2024-02-28T18:35:36;7.80;99.90
80426;DHT22;69766;51.476;5.704;2024-02-28T18:38:16;7.70;99.90
80426;DHT22;69766;51.476;5.704;2024-02-28T18:41:02;7.70;99.90
80426;DHT22;69766;51.476;5.704;2024-02-28T18:43:37;7.70;99.90
80426;DHT22;69766;51.476;5.704;2024-02-28T18:46:15;7.70;99.90
80426;DHT22;69766;51.476;5.704;2024-02-28T18:48:47;7.60;99.90
80426;DHT22;69766;51.476;5.704;2024-02-28T18:51:21;7.60;99.90
80426;DHT22;69766;51.476;5.704;2024-02-28T18:54:14;7.60;99.90
80426;DHT22;69766;51.476;5.704;2024-02-28T18:56:48;7.60;99.90
80426;DHT22;69766;51.476;5.704;2024-02-28T18:59:20;7.60;99.90
80426;DHT22;69766;51.476;5.704;2024-02-28T19:02:04;7.60;99.90
80426;DHT22;69766;51.476;5.704;2024-02-28T19:04:36;7.60;99.90
80426;DHT22;69766;51.476;5.704;2024-02-28T19:07:02;7.70;99.90
80426;DHT22;69766;51.476;5.704;2024-02-28T19:09:57;7.50;99.90
80426;DHT22;69766;51.476;5.704;2024-02-28T19:12:23;7.60;99.90
80426;DHT22;69766;51.476;5.704;2024-02-28T19:14:53;7.50;99.90
80426;DHT22;69766;51.476;5.704;2024-02-28T19:17:29;7.60;99.90
80426;DHT22;69766;51.476;5.704;2024-02-28T19:19:56;7.50;99.90
80426;DHT22;69766;51.476;5.704;2024-02-28T19:22:41;7.40;99.90
80426;DHT22;69766;51.476;5.704;2024-02-28T19:25:13;7.40;99.90
80426;DHT22;69766;51.476;5.704;2024-02-28T19:27:45;7.40;99.90
80426;DHT22;69766;51.476;5.704;2024-02-28T19:30:32;7.20;99.90
80426;DHT22;69766;51.476;5.704;2024-02-28T19:33:34;7.30;99.90
80426;DHT22;69766;51.476;5.704;2024-02-28T19:36:14;7.30;99.90
80426;DHT22;69766;51.476;5.704;2024-02-28T19:42:39;7.30;99.90
80426;DHT22;69766;51.476;5.704;2024-02-28T19:45:34;7.30;99.90
80426;DHT22;69766;51.476;5.704;2024-02-28T19:48:09;7.30;99.90
80426;DHT22;69766;51.476;5.704;2024-02-28T19:50:40;7.40;99.90
80426;DHT22;69766;51.476;5.704;2024-02-28T19:53:16;7.40;99.90
80426;DHT22;69766;51.476;5.704;2024-02-28T19:55:45;7.40;99.90
80426;DHT22;69766;51.476;5.704;2024-02-28T19:58:30;7.40;99.90
80426;DHT22;69766;51.476;5.704;2024-02-28T20:04:43;7.40;99.90
80426;DHT22;69766;51.476;5.704;2024-02-28T20:07:30;7.40;99.90
80426;DHT22;69766;51.476;5.704;2024-02-28T20:10:38;7.30;99.90
80426;DHT22;69766;51.476;5.704;2024-02-28T20:13:07;7.30;99.90
80426;DHT22;69766;51.476;5.704;2024-02-28T20:15:47;7.40;99.90
80426;DHT22;69766;51.476;5.704;2024-02-28T20:18:33;7.30;99.90
80426;DHT22;69766;51.476;5.704;2024-02-28T20:21:07;7.30;99.90
80426;DHT22;69766;51.476;5.704;2024-02-28T20:23:58;7.30;99.90
80426;DHT22;69766;51.476;5.704;2024-02-28T20:26:42;7.30;99.90
80426;DHT22;69766;51.476;5.704;2024-02-28T20:29:14;7.20;99.90
80426;DHT22;69766;51.476;5.704;2024-02-28T20:31:54;7.20;99.90
80426;DHT22;69766;51.476;5.704;2024-02-28T20:34:31;7.10;99.90
80426;DHT22;69766;51.476;5.704;2024-02-28T20:40:49;7.00;99.90
80426;DHT22;69766;51.476;5.704;2024-02-28T20:43:25;6.90;99.90
80426;DHT22;69766;51.476;5.704;2024-02-28T20:46:22;6.90;99.90
80426;DHT22;69766;51.476;5.704;2024-02-28T21:02:42;6.60;99.90
80426;DHT22;69766;51.476;5.704;2024-02-28T21:19:10;6.40;99.90
80426;DHT22;69766;51.476;5.704;2024-02-28T21:28:46;6.20;99.90
80426;DHT22;69766;51.476;5.704;2024-02-28T23:36:39;4.70;99.90
80426;DHT22;69766;51.476;5.704;2024-02-28T23:39:42;4.70;99.90
80426;DHT22;69766;51.476;5.704;2024-02-28T23:50:17;4.70;99.90
80426;DHT22;69766;51.476;5.704;2024-02-28T23:56:57;4.70;99.90
